Aviation Digital Data Service (ADDS)

Output produced by TAFs form (0316 UTC 20 July 2018)
found at http://www.aviationweather.gov/adds/tafs/
 
KJAX 200256Z 00000KT 9SM FEW070 OVC180 25/24 A2996 RMK AO2 SLP146 T02500244 53011
KJAX 192336Z 2000/2024 00000KT P6SM BKN015 BKN020 OVC180 
     FM200200 VRB03KT P6SM OVC100 
     FM200900 21004KT P6SM FEW025 OVC030 
     FM201400 24008KT P6SM VCSH SCT010 BKN030 
     TEMPO 2014/2018 VRB15G25KT 3SM TSRA FEW010 SCT020 BKN025CB 
     FM201800 24010KT P6SM VCSH SCT010 BKN030 OVC080 
     PROB30 2018/2024 3SM SHRA FEW010 SCT015 BKN025